Meteo Giornale » Osservazioni meteo Stati Uniti (USA) » Ashland Hanover Co
ore: 04:54 - Osservazioni Meteo Ashland Hanover Co
Lat. 37° 42' N Lon. 77° 26' W Alt. 62 metri s.l.m.
22 °C
Sereno
Temp. 24 Ore
22 °C
32 °C
Nord
0 Km/h
Dew point 21 °C
Umidità 94 %
Visibilità 14 Km
Il sole sorge alle ore 06:40
Il sole tramonta alle ore 19:39
| Data e Ora | Cielo e Fenomeni | T °C | DP °C | Um. % | Pres. hPa | Vis. km | Vento km/h | |
|---|---|---|---|---|---|---|---|---|
| Oggi h: 04:54 | Sereno | 22 | 21 | 94 | 1018 | 14 | N 0 | |
| Oggi h: 03:54 | Sereno | 22 | 22 | 100 | 1018 | 13 | N 0 | |
| Oggi h: 02:54 | Sereno | 22 | 21 | 94 | 1018 | 14 | N 0 | |
| Oggi h: 01:54 | Sereno | 23 | 22 | 94 | 1018 | 14 | N 0 | |
| Oggi h: 00:54 | Nuvoloso | 23 | 22 | 94 | 1019 | 10 | N 0 | |
| Ieri h: 23:54 | Sereno | 23 | 22 | 94 | 1019 | 10 | N 0 | |
| Ieri h: 22:54 | Nuvoloso | 26 | 22 | 78 | 1019 | 10 | N 5.5 | |
| Ieri h: 21:54 | Poco Nuvoloso | 26 | 22 | 78 | 1019 | 10 | N 0 | |
| Ieri h: 20:54 | Molto Nuvoloso | 27 | 22 | 74 | 1019 | 10 | E/SE 7.4 | |
| Ieri h: 19:54 | Sereno | 27 | 23 | 78 | 1018 | 10 | N 0 | |
| Ieri h: 18:54 | Sereno | 28 | 23 | 74 | 1018 | 10 | N 0 | |
| Ieri h: 17:54 | Sereno | 32 | 22 | 55 | 1018 | 10 | N 0 | |
| Ieri h: 16:54 | Sereno | 32 | 20 | 49 | 1018 | 10 | N 0 | |
| Ieri h: 15:54 | Sereno | 32 | 21 | 52 | 1018 | 10 | N 7.4 | |
| Ieri h: 14:54 | Nuvoloso | 32 | 21 | 52 | 1019 | 10 | N 5.5 | |
| Ieri h: 13:54 | Sereno | 32 | 20 | 49 | 1019 | 10 | N 7.4 | |
| Ieri h: 12:54 | Sereno | 32 | 21 | 52 | 1019 | 10 | N 0 | |
| Ieri h: 11:54 | Sereno | 31 | 22 | 58 | 1020 | 10 | N 5.5 | |
| Ieri h: 10:54 | Sereno | 29 | 22 | 66 | 1020 | 10 | N 5.5 | |
| Ieri h: 09:54 | Sereno | 27 | 21 | 69 | 1020 | 10 | NO 7.4 | |
| Ieri h: 08:54 | Poco Nuvoloso | 26 | 21 | 73 | 1020 | 10 | N 7.4 | |
| Ieri h: 07:54 | Sereno | 24 | 21 | 83 | 1020 | 10 | O 7.4 | |
| Ieri h: 06:54 | Sereno | 22 | 21 | 94 | 1019 | 14 | N 0 | |
| Ieri h: 05:54 | Sereno | 22 | 21 | 94 | 1019 | 10 | N 0 | |



